Nearby METAR Reports

 

LIBV - Gioia Del Colle, Italy
Distance from station: SSE 15km
Actualizado: 22/01/2018 13:55
Few Clouds
Few Clouds
 Vento de NNW
Vento: NNW 26 km/h
Temperatura: 7°C
Wind Chill: 3°C
Ponto de Orvalho: -4°C
Humidade: 46%
Barómetro: 1013 hPa
Clouds: Few Clouds
Visibility: 10 km
Cloud details: Few Clouds 762 m
2018/01/22 12:55 LIBV 221255Z 33014KT 9999 FEW025 07/M04 Q1013 RMK SCT SCT200 VIS MIN 9999 WIND THR32 35018KT WIND THR14 33016KT BLU
LIBD - Bari/Palese Macc, Italy
Distance from station: NNW 26km
Actualizado: 22/01/2018 14:20
Céu Limpo
Céu Limpo
 Vento de NW
Vento: NW 20 km/h
Temperatura: 10°C
Wind Chill: 7°C
Ponto de Orvalho: 1°C
Humidade: 54%
Barómetro: 1015 hPa
Resumo: Céu Limpo
Visibility: greater than 10 km
2018/01/22 13:20 LIBD 221320Z 32011KT CAVOK 10/01 Q1015
LIBH - Marina Di Ginosa, Italy
Distance from station: S 53km
Actualizado: 22/01/2018 13:55
Céu Limpo
Céu Limpo
 Vento de NNW
Vento: NNW 24 km/h
Temperatura: 12°C
Ponto de Orvalho: -3°C
Humidade: 35%
Barómetro: 1014 hPa
Resumo: Céu Limpo
Visibility: greater than 10 km
2018/01/22 12:55 LIBH 221255Z 33013KT CAVOK 12/M03 Q1014 RMK FEW FEW200 QUK 3 QUL 1 NE VIS MAR 25 KM VIS MIN 9999
 
LIBG - Grottaglie(Civ/A, Italy
Distance from station: SE 61km
Actualizado: 22/01/2018 13:50
Céu Limpo
Céu Limpo
 Vento de N
Vento: N 28 km/h
Temperatura: 11°C
Ponto de Orvalho: 0°C
Humidade: 47%
Barómetro: 1012 hPa
Resumo: Céu Limpo
Visibility: greater than 10 km
2018/01/22 12:50 LIBG 221250Z 36015KT CAVOK 11/00 Q1012
LIBR - Brindisi/Casale, Italy
Distance from station: ESE 96km
Actualizado: 22/01/2018 14:20
Céu Limpo
Céu Limpo
 Vento de N
Vento: N 30 km/h
Temperatura: 10°C
Wind Chill: 7°C
Ponto de Orvalho: -1°C
Humidade: 47%
Barómetro: 1013 hPa
Resumo: Céu Limpo
Visibility: greater than 10 km
2018/01/22 13:20 LIBR 221320Z 35016KT CAVOK 10/M01 Q1013
LIBA - Amendola (it-Afb, Italy
Distance from station: NW 118km
Actualizado: 22/01/2018 13:55
Céu Limpo
Céu Limpo
 Vento de W
Vento: W 20 km/h
Temperatura: 10°C
Wind Chill: 7°C
Ponto de Orvalho: 1°C
Humidade: 54%
Barómetro: 1014 hPa
Resumo: Céu Limpo
Visibility: greater than 10 km
2018/01/22 12:55 LIBA 221255Z 28011KT CAVOK 10/01 Q1014 RMK BKN BKN220 VIS MIN 9999 WIND THR11 28012KT WIND THR29 /////KT BLU
 
LIBF - Foggia/Gino Lisa, Italy
Distance from station: WNW 126km
Actualizado: 22/01/2018 13:50
Céu Limpo
Céu Limpo
 Vento de W
Vento: W 17 km/h
Temperatura: 10°C
Wind Chill: 8°C
Ponto de Orvalho: 0°C
Humidade: 50%
Barómetro: 1015 hPa
Resumo: Céu Limpo
Visibility: greater than 10 km
2018/01/22 12:50 LIBF 221250Z 28009KT CAVOK 10/00 Q1015
LIBN - Lecce (it-Afb), Italy
Distance from station: SE 132km
Actualizado: 22/01/2018 13:55
Céu Limpo
Céu Limpo
 Vento de NNW
Vento: NNW 33 km/h
Temperatura: 10°C
Wind Chill: 6°C
Ponto de Orvalho: 0°C
Humidade: 50%
Barómetro: 1012 hPa
Resumo: Céu Limpo
Visibility: greater than 10 km
2018/01/22 12:55 LIBN 221255Z 34018KT CAVOK 10/00 Q1012 RMK FEW FEW200 VIS MIN 9999 WIND THR14 35017KT WIND THR32 34020KT BLU